Time;durP1;ratioP1;P1;durP2;ratioP2;P2;SDS_P1;SDS_P2;PMS_P1;PMS_P2;Temp;Humidity;BMP_temperature;BMP_pressure;BME280_temperature;BME280_humidity;BME280_pressure;Samples;Min_cycle;Max_cycle;Signal;HPM_P1;HPM_P2
2022/03/05 00:00:04;;;;;;;;;;;0.50;99.90;;;;;;5017272;28;19921;-79
2022/03/05 00:02:30;;;;;;;;;;;0.50;99.90;;;;;;5016496;28;19921;-79
2022/03/05 00:04:56;;;;;;;;;;;0.40;99.90;;;;;;5000595;28;19921;-79
2022/03/05 00:07:21;;;;;;;;;;;0.50;99.90;;;;;;4984936;28;19928;-80
2022/03/05 00:09:47;;;;;;;;;;;0.40;99.90;;;;;;5033576;28;19921;-79
2022/03/05 00:12:13;;;;;;;;;;;0.40;99.90;;;;;;5033353;28;19931;-86
2022/03/05 00:14:38;;;;;;;;;;;0.40;99.90;;;;;;5022312;28;19971;-79
2022/03/05 00:17:04;;;;;;;;;;;0.30;99.90;;;;;;5003882;28;19988;-79
2022/03/05 00:19:29;;;;;;;;;;;0.40;99.90;;;;;;5033383;28;20315;-79
2022/03/05 00:21:57;;;;;;;;;;;0.30;99.90;;;;;;5000438;28;19921;-79
2022/03/05 00:24:22;;;;;;;;;;;0.30;99.90;;;;;;5000790;28;20289;-79
2022/03/05 00:26:48;;;;;;;;;;;0.30;99.90;;;;;;5000609;28;19928;-79
2022/03/05 00:29:14;;;;;;;;;;;0.30;99.90;;;;;;4987818;28;20334;-85
2022/03/05 00:31:39;;;;;;;;;;;0.30;99.90;;;;;;5000358;28;19921;-80
2022/03/05 00:34:05;;;;;;;;;;;0.30;99.90;;;;;;5000122;28;19928;-79
2022/03/05 00:36:30;;;;;;;;;;;0.20;99.90;;;;;;4984184;28;20277;-78
2022/03/05 00:38:56;;;;;;;;;;;0.20;99.90;;;;;;5016285;28;19921;-79
2022/03/05 00:41:22;;;;;;;;;;;0.20;99.90;;;;;;4999860;28;19920;-79
2022/03/05 00:43:47;;;;;;;;;;;0.20;99.90;;;;;;5032643;28;20358;-79
2022/03/05 00:46:13;;;;;;;;;;;0.20;99.90;;;;;;5013698;28;20012;-79
2022/03/05 00:48:39;;;;;;;;;;;0.10;99.90;;;;;;5032934;28;19928;-79
2022/03/05 00:51:04;;;;;;;;;;;0.10;99.90;;;;;;5032910;28;20277;-79
2022/03/05 00:53:30;;;;;;;;;;;0.10;99.90;;;;;;4995822;28;20296;-79
2022/03/05 00:55:56;;;;;;;;;;;0.10;99.90;;;;;;4988204;28;19927;-78
2022/03/05 00:58:21;;;;;;;;;;;0.10;99.90;;;;;;5032132;28;19925;-79
2022/03/05 01:00:47;;;;;;;;;;;0.10;99.90;;;;;;5022606;28;19928;-79
2022/03/05 01:03:13;;;;;;;;;;;0.10;99.90;;;;;;5016460;28;19925;-79
2022/03/05 01:05:39;;;;;;;;;;;0.10;99.90;;;;;;5016274;28;19928;-79
2022/03/05 01:08:04;;;;;;;;;;;0.00;99.90;;;;;;4999666;28;19925;-79
2022/03/05 01:10:30;;;;;;;;;;;0.00;99.90;;;;;;5016118;28;19928;-78
2022/03/05 01:12:56;;;;;;;;;;;0.00;99.90;;;;;;5002574;28;19976;-79
2022/03/05 01:15:21;;;;;;;;;;;-0.10;99.90;;;;;;5032433;28;20628;-79
2022/03/05 01:17:47;;;;;;;;;;;0.00;99.90;;;;;;4999781;28;19921;-79
2022/03/05 01:20:12;;;;;;;;;;;-0.10;99.90;;;;;;5016027;28;19929;-79
2022/03/05 01:22:38;;;;;;;;;;;0.00;99.90;;;;;;5017056;28;19925;-79
2022/03/05 01:25:03;;;;;;;;;;;-0.10;99.90;;;;;;4999981;28;19921;-78
2022/03/05 01:27:29;;;;;;;;;;;-0.10;99.90;;;;;;5016110;28;19921;-79
2022/03/05 01:29:55;;;;;;;;;;;-0.10;99.90;;;;;;4983577;28;20281;-82
2022/03/05 01:32:20;;;;;;;;;;;-0.10;99.90;;;;;;4999424;28;19921;-85
2022/03/05 01:34:46;;;;;;;;;;;-0.10;99.90;;;;;;4999849;28;19921;-79
2022/03/05 01:37:11;;;;;;;;;;;-0.20;99.90;;;;;;5015924;28;19928;-80
2022/03/05 01:39:38;;;;;;;;;;;-0.10;99.90;;;;;;5014927;28;20361;-79
2022/03/05 01:42:04;;;;;;;;;;;-0.10;99.90;;;;;;5016055;28;19925;-79
2022/03/05 01:44:30;;;;;;;;;;;-0.10;99.90;;;;;;4999598;28;19966;-79
2022/03/05 01:46:55;;;;;;;;;;;-0.10;99.90;;;;;;5012043;28;19925;-79
2022/03/05 01:49:21;;;;;;;;;;;-0.20;99.90;;;;;;4980213;28;19921;-81
2022/03/05 01:51:47;;;;;;;;;;;-0.10;99.90;;;;;;5012623;28;20416;-79
2022/03/05 01:54:12;;;;;;;;;;;-0.20;99.90;;;;;;4996113;28;20413;-79
2022/03/05 01:56:39;;;;;;;;;;;-0.20;99.90;;;;;;4996008;28;19971;-78
2022/03/05 01:59:05;;;;;;;;;;;-0.20;99.90;;;;;;5012694;28;20278;-78
2022/03/05 02:01:30;;;;;;;;;;;-0.30;99.90;;;;;;5012040;28;19921;-79
2022/03/05 02:03:56;;;;;;;;;;;-0.20;99.90;;;;;;5012469;28;19922;-78
2022/03/05 02:06:23;;;;;;;;;;;-0.30;99.90;;;;;;5012625;28;19921;-79
2022/03/05 02:08:49;;;;;;;;;;;-0.30;99.90;;;;;;5011985;28;19921;-79
2022/03/05 02:11:14;;;;;;;;;;;-0.30;99.90;;;;;;4979918;28;19928;-79
2022/03/05 02:13:41;;;;;;;;;;;-0.30;99.90;;;;;;4995810;28;20388;-79
2022/03/05 02:16:07;;;;;;;;;;;-0.30;99.90;;;;;;4998689;28;19968;-82
2022/03/05 02:18:33;;;;;;;;;;;-0.40;99.90;;;;;;4998823;28;19929;-79
2022/03/05 02:20:58;;;;;;;;;;;-0.30;99.90;;;;;;4999664;28;19929;-78
2022/03/05 02:23:24;;;;;;;;;;;-0.40;99.90;;;;;;4983406;28;19922;-79
2022/03/05 02:26:00;;;;;;;;;;;-0.30;99.90;;;;;;4999153;28;19921;-79
2022/03/05 02:28:26;;;;;;;;;;;-0.40;99.90;;;;;;4999429;28;20337;-86
2022/03/05 02:30:52;;;;;;;;;;;-0.40;99.90;;;;;;5015831;28;19922;-78
2022/03/05 02:33:17;;;;;;;;;;;-0.40;99.90;;;;;;4999695;28;19975;-78
2022/03/05 02:35:43;;;;;;;;;;;-0.50;99.90;;;;;;4998995;28;19926;-79
2022/03/05 02:38:13;;;;;;;;;;;-0.40;99.90;;;;;;5015418;28;20277;-78
2022/03/05 02:40:39;;;;;;;;;;;-0.50;99.90;;;;;;4982841;28;20343;-78
2022/03/05 02:43:05;;;;;;;;;;;-0.50;99.90;;;;;;5015476;28;20059;-79
2022/03/05 02:45:31;;;;;;;;;;;-0.40;99.90;;;;;;5016158;28;20008;-79
2022/03/05 02:47:56;;;;;;;;;;;-0.50;99.90;;;;;;5018577;28;20313;-79
2022/03/05 02:50:22;;;;;;;;;;;-0.50;99.90;;;;;;5018567;28;19921;-79
2022/03/05 02:52:48;;;;;;;;;;;-0.40;99.90;;;;;;5001979;28;20412;-79
2022/03/05 02:55:13;;;;;;;;;;;-0.50;99.90;;;;;;5018699;28;19971;-79
2022/03/05 02:57:39;;;;;;;;;;;-0.60;99.90;;;;;;5018121;28;20297;-79
2022/03/05 03:00:05;;;;;;;;;;;-0.60;99.90;;;;;;4985784;28;19971;-79
2022/03/05 03:02:30;;;;;;;;;;;-0.60;99.90;;;;;;5001966;28;19928;-79
2022/03/05 03:04:56;;;;;;;;;;;-0.60;99.90;;;;;;5002002;28;19928;-79
2022/03/05 03:07:21;;;;;;;;;;;-0.60;99.90;;;;;;5001441;28;19928;-81
2022/03/05 03:09:47;;;;;;;;;;;-0.60;99.90;;;;;;4985413;28;20417;-79
2022/03/05 03:12:12;;;;;;;;;;;-0.60;99.90;;;;;;5001604;28;20277;-79
2022/03/05 03:14:38;;;;;;;;;;;-0.60;99.90;;;;;;5017810;28;19921;-79
2022/03/05 03:17:03;;;;;;;;;;;-0.60;99.90;;;;;;4985188;28;19921;-79
2022/03/05 03:19:29;;;;;;;;;;;-0.60;99.90;;;;;;5018116;28;19921;-78
2022/03/05 03:21:55;;;;;;;;;;;-0.60;99.90;;;;;;5017798;28;20464;-79
2022/03/05 03:24:20;;;;;;;;;;;-0.60;99.90;;;;;;5018066;28;19927;-78
2022/03/05 03:26:46;;;;;;;;;;;-0.60;99.90;;;;;;5000233;28;20033;-79
2022/03/05 03:29:11;;;;;;;;;;;-0.60;99.90;;;;;;5001482;28;19921;-79
2022/03/05 03:31:37;;;;;;;;;;;-0.60;99.90;;;;;;5034290;28;19968;-78
2022/03/05 03:34:03;;;;;;;;;;;-0.60;99.90;;;;;;5034519;28;19925;-78
2022/03/05 03:36:29;;;;;;;;;;;-0.60;99.90;;;;;;5034171;28;19928;-79
2022/03/05 03:38:54;;;;;;;;;;;-0.60;99.90;;;;;;5024588;28;19927;-81
2022/03/05 03:41:20;;;;;;;;;;;-0.60;99.90;;;;;;5001394;28;19921;-79
2022/03/05 03:43:45;;;;;;;;;;;-0.70;99.90;;;;;;5017482;28;19921;-78
2022/03/05 03:46:11;;;;;;;;;;;-0.70;99.90;;;;;;5000907;28;19921;-78
2022/03/05 03:48:37;;;;;;;;;;;-0.70;99.90;;;;;;5017468;28;19921;-79
2022/03/05 03:51:02;;;;;;;;;;;-0.60;99.90;;;;;;5017361;28;19921;-78
2022/03/05 03:53:28;;;;;;;;;;;-0.70;99.90;;;;;;5034319;28;19921;-79
2022/03/05 03:55:54;;;;;;;;;;;-0.70;99.90;;;;;;5033802;28;19975;-78
2022/03/05 03:58:19;;;;;;;;;;;-0.70;99.90;;;;;;5017274;28;20016;-78
2022/03/05 04:00:45;;;;;;;;;;;-0.60;99.90;;;;;;5019053;28;19924;-79
2022/03/05 04:03:11;;;;;;;;;;;-0.60;99.90;;;;;;4984540;28;20282;-78
2022/03/05 04:05:36;;;;;;;;;;;-0.60;99.90;;;;;;5016988;28;19921;-79
2022/03/05 04:10:46;;;;;;;;;;;-0.60;99.90;;;;;;5017005;28;19921;-79
2022/03/05 04:13:12;;;;;;;;;;;-0.60;99.90;;;;;;5016939;28;19921;-78
2022/03/05 04:15:38;;;;;;;;;;;-0.70;99.90;;;;;;4984466;28;19921;-79
2022/03/05 04:18:04;;;;;;;;;;;-0.60;99.90;;;;;;5000019;28;19971;-78
2022/03/05 04:20:30;;;;;;;;;;;-0.70;99.90;;;;;;5000143;28;19921;-79
2022/03/05 04:22:55;;;;;;;;;;;-0.70;99.90;;;;;;5016613;28;19928;-78
2022/03/05 04:25:21;;;;;;;;;;;-0.60;99.90;;;;;;5016629;28;20325;-77
2022/03/05 04:27:47;;;;;;;;;;;-0.60;99.90;;;;;;5016317;28;19924;-78
2022/03/05 04:30:12;;;;;;;;;;;-0.60;99.90;;;;;;5016563;28;19967;-78
2022/03/05 04:32:38;;;;;;;;;;;-0.60;99.90;;;;;;5000323;28;19921;-80
2022/03/05 04:35:05;;;;;;;;;;;-0.70;99.90;;;;;;5016135;28;20373;-79
2022/03/05 04:37:31;;;;;;;;;;;-0.70;99.90;;;;;;5016039;28;19928;-78
2022/03/05 04:39:56;;;;;;;;;;;-0.70;99.90;;;;;;5016621;28;19921;-78
2022/03/05 04:42:22;;;;;;;;;;;-0.70;99.90;;;;;;5016691;28;19921;-79
2022/03/05 04:44:48;;;;;;;;;;;-0.70;99.90;;;;;;5016468;28;19921;-78
2022/03/05 04:47:13;;;;;;;;;;;-0.70;99.90;;;;;;5016007;28;19991;-80
2022/03/05 04:49:39;;;;;;;;;;;-0.70;99.90;;;;;;5016431;28;20421;-83
2022/03/05 04:52:05;;;;;;;;;;;-0.70;99.90;;;;;;5016491;28;20004;-78
2022/03/05 04:54:30;;;;;;;;;;;-0.70;99.90;;;;;;5016409;28;20051;-78
2022/03/05 04:56:56;;;;;;;;;;;-0.70;99.90;;;;;;5016134;28;19928;-78
2022/03/05 04:59:22;;;;;;;;;;;-0.80;99.90;;;;;;5016111;28;20351;-78
2022/03/05 05:01:48;;;;;;;;;;;-0.80;99.90;;;;;;4999962;28;20015;-78
2022/03/05 05:04:13;;;;;;;;;;;-0.80;99.90;;;;;;5016033;28;19921;-78
2022/03/05 05:06:39;;;;;;;;;;;-0.80;99.90;;;;;;5000569;28;19921;-78
2022/03/05 05:09:05;;;;;;;;;;;-0.80;99.90;;;;;;5018366;28;19921;-79
2022/03/05 05:11:30;;;;;;;;;;;-0.80;99.90;;;;;;4983469;28;20373;-79
2022/03/05 05:13:56;;;;;;;;;;;-0.80;99.90;;;;;;5015617;28;20340;-78
2022/03/05 05:16:21;;;;;;;;;;;-0.80;99.90;;;;;;5015676;28;19972;-81
2022/03/05 05:21:32;;;;;;;;;;;-0.90;99.90;;;;;;5015805;28;19927;-78
2022/03/05 05:23:57;;;;;;;;;;;-0.90;99.90;;;;;;4999577;28;19921;-78
2022/03/05 05:26:23;;;;;;;;;;;-0.90;99.90;;;;;;5032611;28;19925;-79
2022/03/05 05:28:49;;;;;;;;;;;-1.00;99.90;;;;;;5015559;28;19967;-78
2022/03/05 05:31:14;;;;;;;;;;;-0.90;99.90;;;;;;4999747;28;19921;-78
2022/03/05 05:33:44;;;;;;;;;;;-1.00;99.90;;;;;;4983626;28;20011;-78
2022/03/05 05:36:10;;;;;;;;;;;-1.00;99.90;;;;;;5000047;28;19967;-79
2022/03/05 05:38:36;;;;;;;;;;;-1.00;99.90;;;;;;4999128;28;19925;-78
2022/03/05 05:41:02;;;;;;;;;;;-1.00;99.90;;;;;;5015723;28;19944;-78
2022/03/05 05:43:28;;;;;;;;;;;-1.00;99.90;;;;;;4983356;28;19921;-78
2022/03/05 05:45:54;;;;;;;;;;;-1.00;99.90;;;;;;5015708;28;19928;-79
2022/03/05 05:48:19;;;;;;;;;;;-1.10;99.90;;;;;;4999008;28;19943;-78
2022/03/05 05:50:45;;;;;;;;;;;-1.00;99.90;;;;;;5017786;28;19928;-79
2022/03/05 05:53:11;;;;;;;;;;;-1.00;99.90;;;;;;5019674;28;19921;-78
2022/03/05 05:55:36;;;;;;;;;;;-1.00;99.90;;;;;;5019614;28;20018;-80
2022/03/05 05:58:02;;;;;;;;;;;-1.00;99.90;;;;;;4986502;28;20441;-78
2022/03/05 06:00:28;;;;;;;;;;;-1.00;99.90;;;;;;5003075;28;19929;-79
2022/03/05 06:02:53;;;;;;;;;;;-1.00;99.90;;;;;;5016103;28;19932;-79
2022/03/05 06:05:19;;;;;;;;;;;-1.00;99.90;;;;;;4999391;28;20385;-78
2022/03/05 06:07:44;;;;;;;;;;;-1.00;99.90;;;;;;5026482;28;19967;-79
2022/03/05 06:10:10;;;;;;;;;;;-1.00;99.90;;;;;;5018833;28;19921;-79
2022/03/05 06:12:36;;;;;;;;;;;-1.00;99.90;;;;;;5022299;28;19931;-79
2022/03/05 06:15:03;;;;;;;;;;;-1.00;99.90;;;;;;5019273;28;20000;-80
2022/03/05 06:17:29;;;;;;;;;;;-1.00;99.90;;;;;;5019024;28;19944;-80
2022/03/05 06:19:55;;;;;;;;;;;-1.00;99.90;;;;;;5002635;28;19948;-79
2022/03/05 06:22:21;;;;;;;;;;;-1.00;99.90;;;;;;5019124;28;20400;-78
2022/03/05 06:24:46;;;;;;;;;;;-1.00;99.90;;;;;;5002401;28;19921;-78
2022/03/05 06:27:12;;;;;;;;;;;-1.00;99.90;;;;;;5018159;28;19921;-79
2022/03/05 06:29:37;;;;;;;;;;;-1.00;99.90;;;;;;5002278;28;20002;-77
2022/03/05 06:32:03;;;;;;;;;;;-1.10;99.90;;;;;;5020528;28;20381;-79
2022/03/05 06:34:29;;;;;;;;;;;-1.00;99.90;;;;;;4986317;28;19989;-79
2022/03/05 06:36:55;;;;;;;;;;;-1.10;99.90;;;;;;5018721;28;19928;-79
2022/03/05 06:39:20;;;;;;;;;;;-1.00;99.90;;;;;;5002961;28;19929;-78
2022/03/05 06:41:46;;;;;;;;;;;-1.00;99.90;;;;;;5024250;28;20067;-79
2022/03/05 06:44:11;;;;;;;;;;;-1.00;99.90;;;;;;5009257;28;19929;-77
2022/03/05 06:46:37;;;;;;;;;;;-1.00;99.90;;;;;;5018370;28;19967;-78
2022/03/05 06:49:03;;;;;;;;;;;-0.90;99.90;;;;;;5018303;28;19932;-79
2022/03/05 06:51:28;;;;;;;;;;;-0.90;99.90;;;;;;5018879;28;19925;-77
2022/03/05 06:53:54;;;;;;;;;;;-0.90;99.90;;;;;;5002072;28;19928;-78
2022/03/05 06:56:20;;;;;;;;;;;-0.80;99.90;;;;;;5001869;28;19929;-78
2022/03/05 06:58:45;;;;;;;;;;;-0.80;99.90;;;;;;5018004;28;19975;-78
2022/03/05 07:01:11;;;;;;;;;;;-0.70;99.90;;;;;;5001644;28;19924;-79
2022/03/05 07:03:36;;;;;;;;;;;-0.80;99.90;;;;;;5018562;28;19921;-78
2022/03/05 07:06:02;;;;;;;;;;;-0.70;99.90;;;;;;5002361;28;19971;-78
2022/03/05 07:08:28;;;;;;;;;;;-0.70;99.90;;;;;;5018508;28;19921;-78
2022/03/05 07:10:53;;;;;;;;;;;-0.60;99.90;;;;;;5002036;28;19929;-77
2022/03/05 07:13:19;;;;;;;;;;;-0.60;99.90;;;;;;5002061;28;19964;-77
2022/03/05 07:15:44;;;;;;;;;;;-0.60;99.90;;;;;;5017992;28;19921;-77
2022/03/05 07:18:10;;;;;;;;;;;-0.50;99.90;;;;;;4991978;28;19920;-78
2022/03/05 07:20:36;;;;;;;;;;;-0.50;99.90;;;;;;5037703;28;19925;-78
2022/03/05 07:23:04;;;;;;;;;;;-0.40;99.90;;;;;;5028967;28;19978;-77
2022/03/05 07:25:36;;;;;;;;;;;-0.40;99.90;;;;;;4998776;28;19925;-77
2022/03/05 07:28:04;;;;;;;;;;;-0.30;99.90;;;;;;5014932;28;19929;-78
2022/03/05 07:30:30;;;;;;;;;;;-0.20;99.90;;;;;;5016812;28;20015;-78
2022/03/05 07:32:55;;;;;;;;;;;-0.20;99.90;;;;;;5016269;28;19976;-78
2022/03/05 07:35:21;;;;;;;;;;;-0.20;99.90;;;;;;5019118;28;19924;-78
2022/03/05 07:37:46;;;;;;;;;;;-0.10;99.90;;;;;;5016897;28;19997;-77
2022/03/05 07:40:12;;;;;;;;;;;0.00;99.90;;;;;;5026183;28;20335;-78
2022/03/05 07:42:38;;;;;;;;;;;0.10;99.90;;;;;;5016610;28;19929;-79
2022/03/05 07:45:03;;;;;;;;;;;0.10;99.90;;;;;;5013354;28;19929;-78
2022/03/05 07:47:29;;;;;;;;;;;0.20;99.90;;;;;;4999521;28;20365;-78
2022/03/05 07:49:54;;;;;;;;;;;0.30;99.90;;;;;;5017327;28;19921;-82
2022/03/05 07:52:20;;;;;;;;;;;0.30;99.90;;;;;;5017171;28;19928;-78
2022/03/05 07:54:46;;;;;;;;;;;0.40;99.90;;;;;;5016821;28;19964;-82
2022/03/05 07:57:11;;;;;;;;;;;0.50;99.90;;;;;;5016748;28;19960;-76
2022/03/05 07:59:37;;;;;;;;;;;0.60;99.90;;;;;;5035107;28;19921;-80
2022/03/05 08:02:03;;;;;;;;;;;0.70;99.90;;;;;;5017003;28;19932;-79
2022/03/05 08:04:28;;;;;;;;;;;0.80;99.90;;;;;;5018960;28;19925;-82
2022/03/05 08:06:54;;;;;;;;;;;0.90;99.90;;;;;;5013088;28;19921;-78
2022/03/05 08:09:19;;;;;;;;;;;0.90;99.90;;;;;;5033604;28;19925;-78
2022/03/05 08:11:45;;;;;;;;;;;1.00;99.90;;;;;;5033284;28;20334;-78
2022/03/05 08:14:10;;;;;;;;;;;1.10;99.90;;;;;;5032983;28;19928;-78
2022/03/05 08:16:36;;;;;;;;;;;1.20;99.90;;;;;;5015068;28;19924;-78
2022/03/05 08:19:02;;;;;;;;;;;1.30;99.90;;;;;;4999847;28;19921;-78
2022/03/05 08:21:27;;;;;;;;;;;1.40;99.90;;;;;;5000830;28;20250;-78
2022/03/05 08:23:53;;;;;;;;;;;1.40;99.90;;;;;;5000723;28;19932;-78
2022/03/05 08:26:19;;;;;;;;;;;1.50;99.90;;;;;;5016504;28;20284;-78
2022/03/05 08:28:45;;;;;;;;;;;1.60;99.90;;;;;;5016908;28;19921;-78
2022/03/05 08:31:11;;;;;;;;;;;1.60;99.90;;;;;;5016433;28;20260;-78
2022/03/05 08:33:38;;;;;;;;;;;1.70;99.90;;;;;;5005048;28;19917;-78
2022/03/05 08:36:04;;;;;;;;;;;1.80;99.90;;;;;;5032369;28;19971;-79
2022/03/05 08:38:31;;;;;;;;;;;1.80;99.90;;;;;;5016000;28;19964;-78
2022/03/05 08:41:00;;;;;;;;;;;1.90;99.90;;;;;;5032445;28;20313;-78
2022/03/05 08:43:26;;;;;;;;;;;2.00;99.90;;;;;;5031554;28;19932;-78
2022/03/05 08:45:52;;;;;;;;;;;2.00;99.90;;;;;;5032799;28;19921;-79
2022/03/05 08:48:18;;;;;;;;;;;2.10;99.90;;;;;;5031720;28;19921;-80
2022/03/05 08:50:43;;;;;;;;;;;2.10;99.90;;;;;;5016356;28;20009;-79
2022/03/05 08:53:09;;;;;;;;;;;2.20;99.90;;;;;;4999914;28;19925;-78
2022/03/05 08:55:34;;;;;;;;;;;2.30;99.90;;;;;;5014862;28;19925;-78
2022/03/05 08:58:00;;;;;;;;;;;2.40;99.90;;;;;;5015740;28;19921;-84
2022/03/05 09:00:26;;;;;;;;;;;2.40;99.90;;;;;;5032109;28;19960;-79
2022/03/05 09:02:51;;;;;;;;;;;2.50;99.90;;;;;;5032598;28;20274;-78
2022/03/05 09:05:17;;;;;;;;;;;2.50;99.90;;;;;;5009210;28;19924;-78
2022/03/05 09:07:43;;;;;;;;;;;2.60;99.90;;;;;;5021452;28;20019;-78
2022/03/05 09:10:09;;;;;;;;;;;2.60;99.90;;;;;;5032500;28;19921;-79
2022/03/05 09:12:35;;;;;;;;;;;2.70;99.90;;;;;;5032571;28;20011;-78
2022/03/05 09:15:00;;;;;;;;;;;2.70;99.90;;;;;;5016155;28;20015;-78
2022/03/05 09:17:26;;;;;;;;;;;2.90;99.90;;;;;;4998939;28;20289;-78
2022/03/05 09:19:53;;;;;;;;;;;2.90;99.90;;;;;;5032612;28;19928;-82
2022/03/05 09:22:19;;;;;;;;;;;3.00;99.90;;;;;;5031371;28;19921;-76
2022/03/05 09:24:45;;;;;;;;;;;3.00;99.90;;;;;;5034241;28;20067;-77
2022/03/05 09:27:11;;;;;;;;;;;3.20;99.90;;;;;;5019742;28;19979;-84
2022/03/05 09:29:36;;;;;;;;;;;3.30;99.90;;;;;;5028485;28;19921;-79
2022/03/05 09:32:02;;;;;;;;;;;3.30;99.90;;;;;;5011561;28;19921;-79
2022/03/05 09:34:28;;;;;;;;;;;3.30;99.90;;;;;;5031172;28;19975;-79
2022/03/05 09:36:54;;;;;;;;;;;3.30;99.90;;;;;;5015369;28;19925;-79
2022/03/05 09:39:20;;;;;;;;;;;3.30;99.90;;;;;;4998163;28;19921;-78
2022/03/05 09:41:45;;;;;;;;;;;3.30;99.90;;;;;;5012849;28;19975;-79
2022/03/05 09:44:11;;;;;;;;;;;3.40;99.90;;;;;;4996465;28;19921;-77
2022/03/05 09:46:37;;;;;;;;;;;3.50;99.90;;;;;;5006711;28;19983;-78
2022/03/05 09:49:03;;;;;;;;;;;3.60;99.90;;;;;;5006412;28;19980;-77
2022/03/05 09:51:29;;;;;;;;;;;3.60;99.90;;;;;;5029287;28;20393;-77
2022/03/05 09:53:55;;;;;;;;;;;3.70;99.90;;;;;;5011737;28;20395;-79
2022/03/05 09:56:21;;;;;;;;;;;3.70;99.90;;;;;;5010664;28;19921;-77
2022/03/05 09:58:49;;;;;;;;;;;3.90;99.90;;;;;;5007923;28;20020;-78
2022/03/05 10:01:15;;;;;;;;;;;3.90;99.90;;;;;;4996810;28;19928;-77
2022/03/05 10:03:42;;;;;;;;;;;4.00;99.90;;;;;;4999940;28;20008;-78
2022/03/05 10:06:21;;;;;;;;;;;4.00;99.90;;;;;;4997001;28;19925;-78
2022/03/05 10:08:47;;;;;;;;;;;4.10;99.90;;;;;;5019104;28;20016;-78
2022/03/05 10:11:13;;;;;;;;;;;4.30;99.90;;;;;;5018774;28;20384;-78
2022/03/05 10:13:40;;;;;;;;;;;4.30;99.90;;;;;;5019333;28;19968;-77
2022/03/05 10:16:07;;;;;;;;;;;4.40;99.90;;;;;;5018766;28;19921;-79
2022/03/05 10:18:33;;;;;;;;;;;4.50;99.90;;;;;;5002463;28;19920;-77
2022/03/05 10:21:00;;;;;;;;;;;4.50;99.90;;;;;;5036477;28;19921;-77
2022/03/05 10:23:26;;;;;;;;;;;4.70;99.90;;;;;;5018561;28;19979;-78
2022/03/05 10:25:53;;;;;;;;;;;4.80;99.90;;;;;;5002642;28;19980;-80
2022/03/05 10:28:20;;;;;;;;;;;4.80;99.90;;;;;;5002698;28;19921;-77
2022/03/05 10:30:53;;;;;;;;;;;5.00;99.90;;;;;;5002681;28;20265;-78
2022/03/05 10:33:28;;;;;;;;;;;5.10;99.90;;;;;;5002094;28;20018;-78
2022/03/05 10:35:54;;;;;;;;;;;5.20;99.90;;;;;;5018133;28;19921;-77
2022/03/05 10:38:20;;;;;;;;;;;5.40;99.90;;;;;;5017918;28;19921;-78
2022/03/05 10:40:55;;;;;;;;;;;5.40;99.90;;;;;;5018714;28;19944;-77
2022/03/05 10:43:22;;;;;;;;;;;5.50;99.90;;;;;;5018619;28;20019;-79
2022/03/05 10:45:51;;;;;;;;;;;5.70;99.90;;;;;;5018538;28;19928;-77
2022/03/05 10:48:21;;;;;;;;;;;5.70;99.90;;;;;;5028261;28;20337;-76
2022/03/05 10:50:47;;;;;;;;;;;5.70;99.90;;;;;;5035034;28;20413;-79
2022/03/05 10:53:12;;;;;;;;;;;5.80;99.90;;;;;;5001686;28;19976;-79
2022/03/05 10:55:38;;;;;;;;;;;5.80;99.90;;;;;;5028800;28;19925;-79
2022/03/05 10:58:09;;;;;;;;;;;6.00;99.90;;;;;;5007577;28;19925;-83
2022/03/05 11:00:34;;;;;;;;;;;6.10;99.90;;;;;;5023298;28;19921;-78
2022/03/05 11:03:03;;;;;;;;;;;6.20;99.90;;;;;;5015006;28;19970;-79
2022/03/05 11:05:28;;;;;;;;;;;6.20;99.90;;;;;;4996658;28;19928;-77
2022/03/05 11:07:54;;;;;;;;;;;6.20;99.90;;;;;;5000884;28;19921;-82
2022/03/05 11:10:23;;;;;;;;;;;6.30;99.90;;;;;;4996128;28;19943;-77
2022/03/05 11:12:52;;;;;;;;;;;6.40;99.90;;;;;;5030126;28;19971;-80
2022/03/05 11:15:18;;;;;;;;;;;6.60;99.90;;;;;;4998104;28;19925;-80
2022/03/05 11:17:45;;;;;;;;;;;6.70;99.90;;;;;;5009545;28;19979;-79
2022/03/05 11:20:11;;;;;;;;;;;6.70;99.90;;;;;;5015639;28;19927;-79
2022/03/05 11:22:37;;;;;;;;;;;6.80;99.90;;;;;;5017393;28;19921;-79
2022/03/05 11:25:03;;;;;;;;;;;6.90;99.90;;;;;;5017826;28;19929;-79
2022/03/05 11:27:29;;;;;;;;;;;7.10;99.90;;;;;;4984488;28;19928;-78
2022/03/05 11:29:59;;;;;;;;;;;7.20;99.90;;;;;;5001507;28;19982;-86
2022/03/05 11:32:32;;;;;;;;;;;7.40;99.90;;;;;;5001136;28;19967;-80
2022/03/05 11:34:58;;;;;;;;;;;7.60;99.90;;;;;;5017487;28;19928;-77
2022/03/05 11:37:25;;;;;;;;;;;7.70;99.90;;;;;;5000257;28;19925;-77
2022/03/05 11:39:51;;;;;;;;;;;8.00;99.90;;;;;;5017503;28;19921;-77
2022/03/05 11:42:27;;;;;;;;;;;8.20;99.90;;;;;;5000639;28;19983;-77
2022/03/05 11:44:56;;;;;;;;;;;8.50;99.90;;;;;;5016653;28;19968;-78
2022/03/05 11:47:23;;;;;;;;;;;8.60;99.90;;;;;;5013484;28;19944;-80
2022/03/05 11:49:55;;;;;;;;;;;8.80;99.90;;;;;;5016177;28;19921;-78
2022/03/05 11:52:21;;;;;;;;;;;9.00;99.90;;;;;;5010577;28;20246;-80
2022/03/05 11:55:05;;;;;;;;;;;9.30;99.90;;;;;;5012727;28;19928;-79
2022/03/05 11:57:30;;;;;;;;;;;9.50;99.90;;;;;;5013400;28;20003;-83
2022/03/05 12:00:03;;;;;;;;;;;9.80;99.90;;;;;;5015023;28;20417;-80
2022/03/05 12:02:45;;;;;;;;;;;9.80;99.90;;;;;;5016459;28;19921;-79
2022/03/05 12:05:31;;;;;;;;;;;10.00;99.90;;;;;;4997368;28;19921;-80
2022/03/05 12:07:56;;;;;;;;;;;10.10;99.90;;;;;;4992929;28;19999;-80
2022/03/05 12:10:22;;;;;;;;;;;10.10;99.90;;;;;;4999988;28;19925;-79
2022/03/05 12:12:51;;;;;;;;;;;10.30;99.90;;;;;;5033224;28;19964;-80
2022/03/05 12:15:17;;;;;;;;;;;10.40;99.90;;;;;;5032148;28;19921;-79
2022/03/05 12:17:47;;;;;;;;;;;10.40;99.90;;;;;;5016239;28;19967;-80
2022/03/05 12:20:14;;;;;;;;;;;10.40;99.90;;;;;;5016653;28;19982;-79
2022/03/05 12:23:06;;;;;;;;;;;10.60;99.90;;;;;;4999862;28;19921;-80
2022/03/05 12:25:33;;;;;;;;;;;10.70;99.90;;;;;;5013909;28;19924;-81
2022/03/05 12:27:59;;;;;;;;;;;10.90;99.90;;;;;;5015842;28;20428;-79
2022/03/05 12:30:37;;;;;;;;;;;10.90;99.90;;;;;;4999105;28;20365;-80
2022/03/05 12:33:07;;;;;;;;;;;10.80;99.90;;;;;;5015191;28;19928;-80
2022/03/05 12:35:33;;;;;;;;;;;11.00;99.90;;;;;;5016150;28;19921;-81
2022/03/05 12:37:59;;;;;;;;;;;11.20;99.90;;;;;;5016120;28;19921;-80
2022/03/05 12:40:25;;;;;;;;;;;11.10;98.80;;;;;;5016032;28;19968;-81
2022/03/05 12:42:51;;;;;;;;;;;11.30;99.50;;;;;;4995448;28;19921;-82
2022/03/05 12:45:27;;;;;;;;;;;11.50;99.90;;;;;;5010215;28;19928;-81
2022/03/05 12:47:53;;;;;;;;;;;11.70;99.40;;;;;;5022857;28;19945;-81
2022/03/05 12:50:27;;;;;;;;;;;11.70;98.50;;;;;;5011001;28;19922;-82
2022/03/05 12:52:53;;;;;;;;;;;11.80;98.60;;;;;;5004043;28;20413;-80
2022/03/05 12:55:19;;;;;;;;;;;11.50;97.60;;;;;;5007042;28;19976;-80
2022/03/05 12:57:45;;;;;;;;;;;11.40;98.60;;;;;;5011634;28;19969;-79
2022/03/05 13:00:10;;;;;;;;;;;11.00;98.80;;;;;;5004176;28;19921;-83
2022/03/05 13:02:36;;;;;;;;;;;10.90;98.50;;;;;;4995917;28;20407;-81
2022/03/05 13:05:14;;;;;;;;;;;10.90;99.00;;;;;;5012725;28;19921;-81
2022/03/05 13:07:40;;;;;;;;;;;10.80;99.00;;;;;;5002113;28;19971;-80
2022/03/05 13:10:09;;;;;;;;;;;10.60;98.40;;;;;;5006717;28;20004;-80
2022/03/05 13:12:38;;;;;;;;;;;10.60;98.90;;;;;;4979759;28;19925;-80
2022/03/05 13:15:04;;;;;;;;;;;10.70;99.10;;;;;;4995865;28;19925;-80
2022/03/05 13:17:30;;;;;;;;;;;10.80;98.40;;;;;;4995376;28;19951;-79
2022/03/05 13:19:57;;;;;;;;;;;11.00;97.50;;;;;;5009627;28;19928;-81
2022/03/05 13:22:26;;;;;;;;;;;11.20;97.40;;;;;;5006378;28;19925;-80
2022/03/05 13:24:51;;;;;;;;;;;11.20;97.60;;;;;;5011146;28;20063;-82
2022/03/05 13:27:17;;;;;;;;;;;11.30;97.10;;;;;;5004007;28;20008;-83
2022/03/05 13:29:43;;;;;;;;;;;11.20;96.60;;;;;;5011685;28;19936;-89
2022/03/05 13:32:08;;;;;;;;;;;11.10;96.80;;;;;;4999999;28;19988;-84
2022/03/05 13:34:34;;;;;;;;;;;10.80;96.80;;;;;;5010462;28;19921;-82
2022/03/05 13:37:07;;;;;;;;;;;10.50;97.10;;;;;;5011489;28;20020;-81
2022/03/05 13:39:33;;;;;;;;;;;10.20;97.60;;;;;;5011842;28;19921;-82
2022/03/05 13:41:59;;;;;;;;;;;10.10;97.70;;;;;;5011863;28;19971;-82
2022/03/05 13:44:35;;;;;;;;;;;10.10;98.70;;;;;;4995388;28;19921;-82
2022/03/05 13:47:01;;;;;;;;;;;10.10;98.30;;;;;;5013884;28;19988;-82
2022/03/05 13:49:28;;;;;;;;;;;10.20;98.40;;;;;;5015127;28;19921;-84
2022/03/05 13:51:58;;;;;;;;;;;10.50;98.60;;;;;;5014970;28;19925;-83
2022/03/05 13:54:34;;;;;;;;;;;11.10;97.90;;;;;;4998929;28;19921;-83
2022/03/05 13:57:00;;;;;;;;;;;11.70;96.80;;;;;;4999076;28;19928;-82
2022/03/05 13:59:36;;;;;;;;;;;12.20;95.30;;;;;;4998667;28;19921;-83
2022/03/05 14:02:02;;;;;;;;;;;12.50;95.00;;;;;;4998424;28;19928;-83
2022/03/05 14:04:28;;;;;;;;;;;12.80;94.30;;;;;;5014730;28;20622;-83
2022/03/05 14:07:03;;;;;;;;;;;12.90;92.90;;;;;;4998688;28;20381;-84
2022/03/05 14:09:30;;;;;;;;;;;13.10;92.80;;;;;;5015117;28;19961;-83
2022/03/05 14:12:01;;;;;;;;;;;13.30;93.00;;;;;;5000949;28;19925;-84
2022/03/05 14:15:02;;;;;;;;;;;13.30;91.30;;;;;;5001350;28;19988;-83
2022/03/05 14:17:42;;;;;;;;;;;13.50;90.90;;;;;;4923851;29;19977;-83
2022/03/05 14:20:10;;;;;;;;;;;13.70;89.40;;;;;;4992525;28;20391;-83
2022/03/05 14:22:46;;;;;;;;;;;14.20;91.30;;;;;;5018237;28;19921;-83